PWSweather.com
Personal Weather Stations
Station Observations
KVAGLENALL
West Henrico, Glen Allen, VA 23060-6503

West HenricoGlen Allen, VA 23060-6503

Lat: 37.6554, Lon: -77.5693

Elevation: 273

Station Type: Davis Vantage Pro II

www.glenallenweather.com

High Low Average
Temperature 45.0°F7.2°C 37.0°F2.8°C 41.0°F5.0°C
Dew Point 35.1°F1.7°C 27.2°F-2.7°C 31.0°F-0.6°C
Winds 15.0 mph 24.1 kmh 1.0 mph 1.6 kmh 7.0 mph ESE11.3 kmh ESE
Wind Gusts 18.2 mph29.3 kmh 8.1 mph13.0 kmh 13.0 mph20.9 kmh
Humidity 78% 59% 67%
Pressure 30.31 in1026.4 mb 30.18 in1022.0 mb -
Precipitation 0.00 in0.0 mm - -
Hour Temp Dew Point Humidity Winds Wind Gusts Pressure Precip Precip Rate Daily Precip Total
12:30 AM 39.8°F4.3°C 32.5°F0.3°C 75% 6.0 mph N9.7 kmh N 9.1 mph14.6 kmh 30.19 in1022.4 mb 0.00 in0.0 mm 0.00 in0.0 mm 0.00 in0.0 mm
01:30 AM 41.1°F5.1°C 31.0°F-0.6°C 67% 6.0 mph N9.7 kmh N 13.1 mph21.1 kmh 30.18 in1022.0 mb 0.00 in0.0 mm 0.00 in0.0 mm 0.00 in0.0 mm
02:30 AM 40.5°F4.7°C 30.8°F-0.7°C 68% 8.0 mph NNE12.9 kmh NNE 15.1 mph24.3 kmh 30.18 in1022.0 mb 0.00 in0.0 mm 0.00 in0.0 mm 0.00 in0.0 mm
03:30 AM 39.9°F4.4°C 30.6°F-0.8°C 69% 8.0 mph NNE12.9 kmh NNE 15.1 mph24.3 kmh 30.19 in1022.4 mb 0.00 in0.0 mm 0.00 in0.0 mm 0.00 in0.0 mm
04:30 AM 39.3°F4.1°C 30.7°F-0.7°C 71% 7.0 mph NE11.3 kmh NE 11.1 mph17.9 kmh 30.21 in1023.0 mb 0.00 in0.0 mm 0.00 in0.0 mm 0.00 in0.0 mm
05:30 AM 39.2°F4.0°C 31.3°F-0.4°C 73% 1.0 mph NE1.6 kmh NE 11.1 mph17.9 kmh 30.24 in1024.0 mb 0.00 in0.0 mm 0.00 in0.0 mm 0.00 in0.0 mm
06:30 AM 37.7°F3.2°C 31.1°F-0.5°C 77% 9.0 mph NNE14.5 kmh NNE 10.1 mph16.3 kmh 30.25 in1024.4 mb 0.00 in0.0 mm 0.00 in0.0 mm 0.00 in0.0 mm
07:30 AM 37.0°F2.8°C 30.8°F-0.7°C 78% 10.0 mph N16.1 kmh N 11.1 mph17.9 kmh 30.28 in1025.4 mb 0.00 in0.0 mm 0.00 in0.0 mm 0.00 in0.0 mm
08:30 AM 39.8°F4.3°C 31.9°F-0.1°C 73% 11.0 mph N17.7 kmh N 13.1 mph21.1 kmh 30.30 in1026.1 mb 0.00 in0.0 mm 0.00 in0.0 mm 0.00 in0.0 mm
09:30 AM 41.3°F5.2°C 31.6°F-0.2°C 68% 7.0 mph ENE11.3 kmh ENE 17.2 mph27.7 kmh 30.31 in1026.4 mb 0.00 in0.0 mm 0.00 in0.0 mm 0.00 in0.0 mm
10:30 AM 42.8°F6.0°C 33.4°F0.8°C 69% 6.0 mph N9.7 kmh N 13.1 mph21.1 kmh 30.31 in1026.4 mb 0.00 in0.0 mm 0.00 in0.0 mm 0.00 in0.0 mm
11:00 AM 43.3°F6.3°C 33.5°F0.8°C 68% 12.0 mph NE19.3 kmh NE 12.1 mph19.5 kmh 30.31 in1026.4 mb 0.00 in0.0 mm 0.00 in0.0 mm 0.00 in0.0 mm
11:30 AM 44.4°F6.9°C 33.8°F1.0°C 66% 4.0 mph N6.4 kmh N 12.1 mph19.5 kmh 30.31 in1026.4 mb 0.00 in0.0 mm 0.00 in0.0 mm 0.00 in0.0 mm
12:30 PM 45.0°F7.2°C 35.1°F1.7°C 68% 2.0 mph SW3.2 kmh SW 8.1 mph13.0 kmh 30.30 in1026.1 mb 0.00 in0.0 mm 0.00 in0.0 mm 0.00 in0.0 mm
01:30 PM 44.3°F6.8°C 34.1°F1.2°C 67% 10.0 mph NNE16.1 kmh NNE 18.2 mph29.3 kmh 30.28 in1025.4 mb 0.00 in0.0 mm 0.00 in0.0 mm 0.00 in0.0 mm
02:30 PM 44.0°F6.7°C 33.8°F1.0°C 67% 12.0 mph N19.3 kmh N 13.1 mph21.1 kmh 30.28 in1025.4 mb 0.00 in0.0 mm 0.00 in0.0 mm 0.00 in0.0 mm
03:30 PM 43.9°F6.6°C 32.2°F0.1°C 63% 15.0 mph N24.1 kmh N 17.2 mph27.7 kmh 30.27 in1025.1 mb 0.00 in0.0 mm 0.00 in0.0 mm 0.00 in0.0 mm
04:30 PM 42.9°F6.1°C 29.6°F-1.3°C 59% 10.0 mph N16.1 kmh N 11.1 mph17.9 kmh 30.29 in1025.7 mb 0.00 in0.0 mm 0.00 in0.0 mm 0.00 in0.0 mm
05:30 PM 41.2°F5.1°C 29.2°F-1.6°C 62% 6.0 mph NE9.7 kmh NE 11.1 mph17.9 kmh 30.31 in1026.4 mb 0.00 in0.0 mm 0.00 in0.0 mm 0.00 in0.0 mm
06:30 PM 40.4°F4.7°C 29.2°F-1.6°C 64% 6.0 mph N9.7 kmh N 11.1 mph17.9 kmh 30.29 in1025.7 mb 0.00 in0.0 mm 0.00 in0.0 mm 0.00 in0.0 mm
07:30 PM 40.8°F4.9°C 28.8°F-1.8°C 62% 9.0 mph N14.5 kmh N 10.1 mph16.3 kmh 30.28 in1025.4 mb 0.00 in0.0 mm 0.00 in0.0 mm 0.00 in0.0 mm
08:30 PM 40.0°F4.4°C 28.1°F-2.2°C 62% 4.0 mph NE6.4 kmh NE 12.1 mph19.5 kmh 30.29 in1025.7 mb 0.00 in0.0 mm 0.00 in0.0 mm 0.00 in0.0 mm
09:30 PM 39.6°F4.2°C 27.3°F-2.6°C 61% 5.0 mph NNE8.0 kmh NNE 15.1 mph24.3 kmh 30.27 in1025.1 mb 0.00 in0.0 mm 0.00 in0.0 mm 0.00 in0.0 mm
10:30 PM 39.1°F3.9°C 27.2°F-2.7°C 62% 3.0 mph NNE4.8 kmh NNE 13.1 mph21.1 kmh 30.28 in1025.4 mb 0.00 in0.0 mm 0.00 in0.0 mm 0.00 in0.0 mm
11:30 PM 38.8°F3.8°C 27.7°F-2.4°C 64% 5.0 mph NNW8.0 kmh NNW 12.1 mph19.5 kmh 30.27 in1025.1 mb 0.00 in0.0 mm 0.00 in0.0 mm 0.00 in0.0 mm